Floyds Knobs, Indiana
Current Conditions -  °F | °C
As of 6:56 AM on Sunday 23 Nov 2014 (Local Time) from KSDF Reporting Station
Broken Clouds Broken Clouds  
Wind Chill: 53°   Ceiling: 7000
Heat Index: 53°   Visibility: 10mi
Dew Point: 40°   Wind: 8mph
Humidity: 61%   Direction: 140°SE
Pressure: 29.97"   Gusts: NA
Location:  38.32°N, 85.87°W
Report Text: KSDF 231156Z 14007KT 10SM FEW033 FEW045 BKN070 12/04 A2997 RMK AO2 SLP148 T01170044 10133 20089 55012
Loading
Personal Weather Stations






























Interactive Weather Map New forecast layout! Learn more

10-Day Weather Forecast

Advertisements
Track Severe Weather on mobile